createdAt,value
2018-09-10T17:52:54.424Z,26.03
2018-09-10T17:54:57.779Z,25.88
2018-09-10T17:55:57.815Z,25.89
2018-09-10T17:56:57.829Z,25.88
2018-09-10T17:57:58.054Z,25.86
2018-09-10T17:58:57.861Z,25.79
2018-09-10T17:59:57.878Z,25.97
2018-09-10T18:00:57.907Z,25.97
2018-09-10T18:01:57.912Z,25.96
2018-09-10T18:02:57.938Z,25.89
2018-09-10T18:03:58.200Z,25.82
2018-09-10T18:04:57.979Z,25.79
2018-09-10T18:05:58.013Z,25.74
2018-09-10T18:06:58.021Z,25.78
2018-09-10T18:07:58.033Z,25.67
2018-09-10T18:08:58.054Z,25.66
2018-09-10T18:09:58.063Z,25.57
2018-09-10T18:10:58.209Z,25.57
2018-09-10T18:11:58.103Z,25.60
2018-09-10T18:12:58.124Z,25.64
2018-09-10T18:13:58.287Z,25.76
2018-09-10T18:14:58.165Z,25.89
2018-09-10T18:15:58.181Z,25.89
2018-09-10T18:16:58.201Z,26.00
2018-09-10T18:17:58.204Z,26.01
2018-09-10T18:18:58.234Z,25.99
2018-09-10T18:19:58.354Z,26.03
2018-09-10T18:20:58.268Z,25.86
2018-09-10T18:21:58.292Z,25.89
2018-09-10T18:22:58.299Z,25.86
2018-09-10T18:23:58.328Z,25.94
2018-09-10T18:24:58.472Z,25.76
2018-09-10T18:25:58.351Z,25.84
2018-09-10T18:26:58.374Z,25.70
2018-09-10T18:27:58.403Z,25.62
2018-09-10T18:28:58.407Z,25.89
2018-09-10T18:29:58.419Z,25.96
2018-09-10T18:30:58.454Z,25.97
2018-09-10T18:31:58.476Z,25.66
2018-09-10T18:32:58.495Z,25.41
2018-09-10T18:33:58.497Z,25.09
2018-09-10T18:34:58.616Z,24.70
2018-09-10T18:35:58.630Z,24.58
2018-09-10T18:36:58.550Z,24.56
2018-09-10T18:37:58.567Z,24.30
2018-09-10T18:38:58.599Z,24.17
2018-09-10T18:39:58.721Z,24.12
2018-09-10T18:40:58.633Z,24.04
2018-09-10T18:41:58.654Z,24.17
2018-09-10T18:42:58.659Z,24.03
2018-09-10T18:43:58.677Z,23.97
2018-09-10T18:44:58.965Z,23.94
2018-09-10T18:45:58.725Z,23.92
2018-09-10T18:46:58.741Z,23.96
2018-09-10T18:47:58.761Z,24.02
2018-09-10T18:48:58.827Z,24.08
2018-09-10T18:49:58.932Z,24.02
2018-09-10T18:50:58.799Z,23.92
2018-09-10T18:51:58.832Z,23.97
2018-09-10T18:52:58.847Z,23.90
2018-09-10T18:53:58.869Z,23.93
2018-09-10T18:54:58.965Z,23.97
2018-09-10T18:55:58.897Z,23.94
2018-09-10T18:56:58.915Z,23.87
2018-09-10T18:57:58.933Z,23.66
2018-09-10T18:58:58.951Z,23.57
2018-09-10T18:59:59.108Z,23.44
2018-09-10T19:00:59.085Z,23.32
2018-09-10T19:01:58.987Z,23.26
2018-09-10T19:02:59.025Z,23.09
2018-09-10T19:03:59.041Z,22.81
2018-09-10T19:04:59.195Z,22.61
2018-09-10T19:05:59.063Z,22.66
2018-09-10T19:06:59.087Z,22.71
2018-09-10T19:07:59.108Z,22.60
2018-09-10T19:08:59.106Z,22.49
2018-09-10T19:09:59.136Z,22.27
2018-09-10T19:10:59.146Z,22.14
2018-09-10T19:11:59.162Z,22.00
2018-09-10T19:12:59.175Z,21.97
2018-09-10T19:13:59.251Z,22.02
2018-09-10T19:14:59.220Z,22.02
2018-09-10T19:15:59.239Z,22.07
2018-09-10T19:16:59.254Z,22.27
2018-09-10T19:17:59.292Z,22.20
2018-09-10T19:18:59.287Z,22.18
2018-09-10T19:19:59.402Z,22.23
2018-09-10T19:20:59.321Z,22.16
2018-09-10T19:21:59.337Z,22.00
2018-09-10T19:22:59.354Z,21.82
2018-09-10T19:23:59.468Z,21.85
2018-09-10T19:24:59.472Z,21.85
2018-09-10T19:25:59.393Z,21.64
2018-09-10T19:26:59.415Z,21.56
2018-09-10T19:27:59.431Z,21.46
2018-09-10T19:28:59.450Z,21.41
2018-09-10T19:29:59.603Z,21.37
2018-09-10T19:30:59.465Z,21.43
2018-09-10T19:31:59.483Z,21.45
2018-09-10T19:32:59.497Z,21.41
2018-09-10T19:33:59.531Z,21.41
2018-09-10T19:34:59.644Z,21.36
2018-09-10T19:35:59.551Z,21.30
2018-09-10T19:36:59.563Z,21.30
2018-09-10T19:37:59.596Z,21.25
2018-09-10T19:38:59.598Z,21.21
2018-09-10T19:39:59.721Z,21.30
2018-09-10T19:40:59.640Z,21.27
2018-09-10T19:41:59.653Z,21.15
2018-09-10T19:42:59.658Z,21.15
2018-09-10T19:43:59.698Z,21.13
2018-09-10T19:44:59.859Z,20.98
2018-09-10T19:45:59.717Z,20.97
2018-09-10T19:46:59.736Z,20.97
2018-09-10T19:47:59.751Z,20.98
2018-09-10T19:48:59.754Z,20.94
2018-09-10T19:49:59.879Z,20.86
2018-09-10T19:50:59.827Z,20.85
2018-09-10T19:51:59.817Z,20.79
2018-09-10T19:52:59.832Z,20.68
2018-09-10T19:53:59.839Z,20.72
2018-09-10T19:54:59.997Z,20.75
2018-09-10T19:55:59.885Z,20.72
2018-09-10T19:56:59.885Z,20.56
2018-09-10T19:57:59.887Z,20.53
2018-09-10T19:58:59.920Z,20.57
2018-09-10T20:00:00.036Z,20.56
2018-09-10T20:00:59.934Z,20.46
2018-09-10T20:01:59.965Z,20.54
2018-09-10T20:02:59.967Z,20.49
2018-09-10T20:04:00.000Z,20.48
2018-09-10T20:05:00.102Z,20.44
2018-09-10T20:06:00.007Z,20.40
2018-09-10T20:07:00.042Z,20.37
2018-09-10T20:08:00.039Z,20.34
2018-09-10T20:09:00.062Z,20.40
2018-09-10T20:10:00.235Z,20.42
2018-09-10T20:11:00.087Z,20.38
2018-09-10T20:12:00.113Z,20.34
2018-09-10T20:13:00.138Z,20.35
2018-09-10T20:14:00.148Z,20.37
2018-09-10T20:15:00.300Z,20.44
2018-09-10T20:16:00.163Z,20.32
2018-09-10T20:17:00.191Z,20.41
2018-09-10T20:18:00.189Z,20.38
2018-09-10T20:19:00.225Z,20.38
2018-09-10T20:20:00.242Z,20.32
2018-09-10T20:21:00.247Z,20.30
2018-09-10T20:22:00.323Z,20.29
2018-09-10T20:23:00.284Z,20.22
2018-09-10T20:24:00.295Z,20.12
2018-09-10T20:25:00.310Z,20.08
2018-09-10T20:26:00.312Z,19.98
2018-09-10T20:27:00.322Z,20.04
2018-09-10T20:28:00.356Z,19.85
2018-09-10T20:29:00.369Z,19.78
2018-09-10T20:30:00.375Z,19.78
2018-09-10T20:31:00.385Z,19.67
2018-09-10T20:32:00.399Z,19.63
2018-09-10T20:33:00.419Z,19.61
2018-09-10T20:34:00.429Z,19.63
2018-09-10T20:35:00.458Z,19.57
2018-09-10T20:36:00.471Z,19.60
2018-09-10T20:37:00.472Z,19.53
2018-09-10T20:38:00.498Z,19.55
2018-09-10T20:39:00.519Z,19.53
2018-09-10T20:40:00.516Z,19.49
2018-09-10T20:41:00.543Z,19.43
2018-09-10T20:42:00.541Z,19.47
2018-09-10T20:43:00.628Z,19.47
2018-09-10T20:44:00.588Z,19.37
2018-09-10T20:45:00.603Z,19.32
2018-09-10T20:46:00.718Z,19.35
2018-09-10T20:47:00.631Z,19.24
2018-09-10T20:48:00.646Z,19.27
2018-09-10T20:49:00.645Z,19.27
2018-09-10T20:50:00.674Z,19.25
2018-09-10T20:51:00.826Z,19.20
2018-09-10T20:52:00.710Z,19.16
2018-09-10T20:53:00.716Z,19.23
2018-09-10T20:54:00.712Z,19.10
2018-09-10T20:55:00.728Z,19.13
2018-09-10T20:56:01.003Z,19.06
2018-09-10T20:57:00.776Z,19.09
2018-09-10T20:58:00.789Z,18.99
2018-09-10T20:59:00.794Z,19.00
2018-09-10T21:00:00.814Z,19.00
2018-09-10T21:01:00.925Z,18.94
2018-09-10T21:02:00.822Z,18.84
2018-09-10T21:03:00.854Z,18.79
2018-09-10T21:04:00.907Z,18.72
2018-09-10T21:05:01.087Z,18.75
2018-09-10T21:06:00.986Z,18.79
2018-09-10T21:07:00.917Z,18.72
2018-09-10T21:08:00.911Z,18.72
2018-09-10T21:09:00.938Z,18.66
2018-09-10T21:10:00.941Z,18.51
2018-09-10T21:11:01.105Z,18.50
2018-09-10T21:12:00.968Z,18.42
2018-09-10T21:13:00.979Z,18.34
2018-09-10T21:14:01.008Z,18.29
2018-09-10T21:15:01.023Z,18.26
2018-09-10T21:16:01.185Z,18.34
2018-09-10T21:17:01.032Z,18.20
2018-09-10T21:18:01.047Z,18.21
2018-09-10T21:19:01.077Z,18.13
2018-09-10T21:20:01.089Z,18.20
2018-09-10T21:21:01.239Z,18.20
2018-09-10T21:22:01.113Z,18.17
2018-09-10T21:23:01.126Z,18.14
2018-09-10T21:24:01.127Z,18.14
2018-09-10T21:25:01.158Z,18.17
2018-09-10T21:26:01.318Z,18.10
2018-09-10T21:27:01.179Z,18.10
2018-09-10T21:28:01.197Z,18.11
2018-09-10T21:29:01.219Z,18.11
2018-09-10T21:30:01.208Z,18.06
2018-09-10T21:31:01.239Z,18.08
2018-09-10T21:32:01.401Z,18.10
2018-09-10T21:33:01.280Z,18.11
2018-09-10T21:34:01.276Z,18.14
2018-09-10T21:35:01.281Z,18.08
2018-09-10T21:36:01.302Z,18.06
2018-09-10T21:37:01.318Z,18.10
2018-09-10T21:38:01.330Z,18.08
2018-09-10T21:39:01.327Z,18.08
2018-09-10T21:40:01.360Z,18.06
2018-09-10T21:41:01.352Z,18.08
2018-09-10T21:42:01.534Z,18.13
2018-09-10T21:43:01.383Z,18.05
2018-09-10T21:44:01.412Z,18.10
2018-09-10T21:45:01.411Z,18.10
2018-09-10T21:46:01.420Z,18.08
2018-09-10T21:47:01.666Z,18.08
2018-09-10T21:48:01.465Z,18.03
2018-09-10T21:49:01.467Z,18.01
2018-09-10T21:50:01.484Z,17.96
2018-09-10T21:51:01.505Z,17.99
2018-09-10T21:52:01.652Z,18.02
2018-09-10T21:53:01.529Z,18.02
2018-09-10T21:54:01.543Z,17.99
2018-09-10T21:55:01.548Z,17.99
2018-09-10T21:56:01.576Z,17.90
2018-09-10T21:57:01.566Z,17.88
2018-09-10T21:58:01.592Z,17.98
2018-09-10T21:59:01.600Z,17.90
2018-09-10T22:00:01.608Z,17.94
2018-09-10T22:01:01.624Z,17.83
2018-09-10T22:02:01.789Z,17.90
2018-09-10T22:03:01.667Z,17.84
2018-09-10T22:04:01.666Z,17.92
2018-09-10T22:05:01.681Z,17.81
2018-09-10T22:06:01.702Z,17.88
2018-09-10T22:07:01.808Z,17.81
2018-09-10T22:08:01.732Z,17.84
2018-09-10T22:09:01.730Z,17.84
2018-09-10T22:10:01.765Z,17.90
2018-09-10T22:11:01.762Z,17.86
2018-09-10T22:12:01.777Z,17.87
2018-09-10T22:13:01.789Z,17.84
2018-09-10T22:14:01.799Z,17.90
2018-09-10T22:15:01.822Z,17.87
2018-09-10T22:16:01.857Z,17.88
2018-09-10T22:17:01.949Z,17.90
2018-09-10T22:18:01.859Z,17.87
2018-09-10T22:19:01.877Z,17.88
2018-09-10T22:20:01.880Z,17.86
2018-09-10T22:21:01.905Z,17.87
2018-09-10T22:22:02.001Z,17.88
2018-09-10T22:23:01.933Z,17.81
2018-09-10T22:24:01.938Z,17.87
2018-09-10T22:25:01.941Z,17.88
2018-09-10T22:26:01.968Z,17.84
2018-09-10T22:27:02.131Z,17.84
2018-09-10T22:28:01.996Z,17.86
2018-09-10T22:29:02.012Z,17.84
2018-09-10T22:30:02.008Z,17.88
2018-09-10T22:31:02.022Z,17.95
2018-09-10T22:32:02.232Z,17.94
2018-09-10T22:33:02.050Z,17.99
2018-09-10T22:34:02.060Z,17.98
2018-09-10T22:35:02.086Z,17.92
2018-09-10T22:36:02.100Z,17.92
2018-09-10T22:37:02.115Z,17.86
2018-09-10T22:38:02.128Z,17.84
2018-09-10T22:39:02.124Z,17.90
2018-09-10T22:40:02.150Z,17.81
2018-09-10T22:41:02.148Z,17.94
2018-09-10T22:42:02.178Z,17.81
2018-09-10T22:43:02.328Z,17.77
2018-09-10T22:44:02.191Z,17.79
2018-09-10T22:45:02.667Z,17.73
2018-09-10T22:46:02.231Z,17.79
2018-09-10T22:47:02.233Z,17.79
2018-09-10T22:48:02.359Z,17.71
2018-09-10T22:49:02.273Z,17.83
2018-09-10T22:50:02.281Z,17.81
2018-09-10T22:51:02.299Z,17.84
2018-09-10T22:52:02.297Z,17.88
2018-09-10T22:53:02.474Z,17.86
2018-09-10T22:54:02.333Z,17.90
2018-09-10T22:55:02.352Z,17.86
2018-09-10T22:56:02.363Z,17.90
2018-09-10T22:57:02.375Z,17.84
2018-09-10T22:58:02.523Z,17.88
2018-09-10T22:59:02.391Z,17.94
2018-09-10T23:00:02.401Z,17.86
2018-09-10T23:01:02.415Z,17.86
2018-09-10T23:02:02.438Z,17.81
2018-09-10T23:03:02.590Z,17.81
2018-09-10T23:04:02.460Z,17.94
2018-09-10T23:05:02.472Z,17.80
2018-09-10T23:06:02.479Z,17.92
2018-09-10T23:07:02.503Z,17.83
2018-09-10T23:08:02.666Z,17.83
2018-09-10T23:09:02.519Z,17.94
2018-09-10T23:10:02.530Z,17.81
2018-09-10T23:11:02.556Z,17.87
2018-09-10T23:12:02.563Z,17.92
2018-09-10T23:13:02.673Z,17.88
2018-09-10T23:14:02.609Z,17.87
2018-09-10T23:15:02.600Z,17.84
2018-09-10T23:16:02.613Z,17.79
2018-09-10T23:17:02.641Z,17.90
2018-09-10T23:18:02.790Z,17.83
2018-09-10T23:19:02.665Z,17.79
2018-09-10T23:20:02.678Z,17.80
2018-09-10T23:21:02.684Z,17.84
2018-09-10T23:22:02.704Z,17.76
2018-09-10T23:23:02.809Z,17.92
2018-09-10T23:24:02.731Z,17.81
2018-09-10T23:25:02.807Z,17.90
2018-09-10T23:26:02.759Z,17.80
2018-09-10T23:27:02.805Z,17.77
2018-09-10T23:28:02.868Z,17.66
2018-09-10T23:29:02.797Z,17.63
2018-09-10T23:30:02.794Z,17.62
2018-09-10T23:31:02.819Z,17.79
2018-09-10T23:32:02.832Z,17.63
2018-09-10T23:33:02.942Z,17.68
2018-09-10T23:34:02.847Z,17.65
2018-09-10T23:35:02.862Z,17.74
2018-09-10T23:36:02.880Z,17.71
2018-09-10T23:37:02.906Z,17.68
2018-09-10T23:38:03.070Z,17.68
2018-09-10T23:39:02.927Z,17.63
2018-09-10T23:40:02.929Z,17.66
2018-09-10T23:41:02.961Z,17.68
2018-09-10T23:42:02.966Z,17.63
2018-09-10T23:43:02.980Z,17.62
2018-09-10T23:44:02.992Z,17.63
2018-09-10T23:45:03.008Z,17.58
2018-09-10T23:46:03.002Z,17.58
2018-09-10T23:47:03.426Z,17.62
2018-09-10T23:48:03.143Z,17.63
2018-09-10T23:49:03.056Z,17.66
2018-09-10T23:50:03.057Z,17.65
2018-09-10T23:51:03.076Z,17.50
2018-09-10T23:52:03.083Z,17.49
2018-09-10T23:53:03.259Z,17.66
2018-09-10T23:54:03.107Z,17.68
2018-09-10T23:55:03.139Z,17.71
2018-09-10T23:56:03.135Z,17.63
2018-09-10T23:57:03.149Z,17.50
2018-09-10T23:58:03.162Z,17.54
2018-09-10T23:59:03.177Z,17.50
